sensor_id;sensor_type;location;lat;lon;timestamp;temperature;humidity
49679;DHT22;35570;48.218;16.326;2023-07-28T00:02:21;21.40;67.20
49679;DHT22;35570;48.218;16.326;2023-07-28T00:04:47;21.40;67.90
49679;DHT22;35570;48.218;16.326;2023-07-28T00:07:12;21.40;66.80
49679;DHT22;35570;48.218;16.326;2023-07-28T00:09:38;21.40;67.90
49679;DHT22;35570;48.218;16.326;2023-07-28T00:12:04;21.40;67.80
49679;DHT22;35570;48.218;16.326;2023-07-28T00:14:30;21.40;68.10
49679;DHT22;35570;48.218;16.326;2023-07-28T00:16:57;21.40;67.40
49679;DHT22;35570;48.218;16.326;2023-07-28T00:19:22;21.40;67.60
49679;DHT22;35570;48.218;16.326;2023-07-28T00:21:48;21.40;67.70
49679;DHT22;35570;48.218;16.326;2023-07-28T00:24:15;21.40;68.40
49679;DHT22;35570;48.218;16.326;2023-07-28T00:26:40;21.30;67.90
49679;DHT22;35570;48.218;16.326;2023-07-28T00:29:06;21.30;68.50
49679;DHT22;35570;48.218;16.326;2023-07-28T00:31:33;21.30;69.10
49679;DHT22;35570;48.218;16.326;2023-07-28T00:33:59;21.20;68.30
49679;DHT22;35570;48.218;16.326;2023-07-28T00:36:25;21.30;68.80
49679;DHT22;35570;48.218;16.326;2023-07-28T00:38:50;21.30;68.30
49679;DHT22;35570;48.218;16.326;2023-07-28T00:41:16;21.30;69.20
49679;DHT22;35570;48.218;16.326;2023-07-28T00:43:42;21.20;69.40
49679;DHT22;35570;48.218;16.326;2023-07-28T00:46:08;21.20;69.70
49679;DHT22;35570;48.218;16.326;2023-07-28T00:48:35;21.30;70.50
49679;DHT22;35570;48.218;16.326;2023-07-28T00:51:00;21.20;70.20
49679;DHT22;35570;48.218;16.326;2023-07-28T00:53:26;21.30;70.30
49679;DHT22;35570;48.218;16.326;2023-07-28T00:55:52;21.20;70.60
49679;DHT22;35570;48.218;16.326;2023-07-28T00:58:18;21.30;78.60
49679;DHT22;35570;48.218;16.326;2023-07-28T01:00:44;21.30;71.80
49679;DHT22;35570;48.218;16.326;2023-07-28T01:03:10;21.30;71.40
49679;DHT22;35570;48.218;16.326;2023-07-28T01:08:49;21.20;71.90
49679;DHT22;35570;48.218;16.326;2023-07-28T01:11:18;21.20;73.50
49679;DHT22;35570;48.218;16.326;2023-07-28T01:13:43;21.20;74.10
49679;DHT22;35570;48.218;16.326;2023-07-28T01:16:09;21.20;74.20
49679;DHT22;35570;48.218;16.326;2023-07-28T01:18:35;21.20;74.90
49679;DHT22;35570;48.218;16.326;2023-07-28T01:21:06;21.20;75.70
49679;DHT22;35570;48.218;16.326;2023-07-28T01:23:56;21.20;76.00
49679;DHT22;35570;48.218;16.326;2023-07-28T01:29:00;21.20;75.50
49679;DHT22;35570;48.218;16.326;2023-07-28T01:31:25;21.20;76.90
49679;DHT22;35570;48.218;16.326;2023-07-28T01:33:51;21.20;77.20
49679;DHT22;35570;48.218;16.326;2023-07-28T01:36:17;21.10;77.80
49679;DHT22;35570;48.218;16.326;2023-07-28T01:38:42;21.10;78.30
49679;DHT22;35570;48.218;16.326;2023-07-28T01:41:08;21.20;78.00
49679;DHT22;35570;48.218;16.326;2023-07-28T01:43:33;21.20;79.60
49679;DHT22;35570;48.218;16.326;2023-07-28T01:45:59;21.20;78.70
49679;DHT22;35570;48.218;16.326;2023-07-28T01:48:26;21.20;77.90
49679;DHT22;35570;48.218;16.326;2023-07-28T01:50:51;21.10;77.80
49679;DHT22;35570;48.218;16.326;2023-07-28T01:53:17;21.10;78.70
49679;DHT22;35570;48.218;16.326;2023-07-28T01:55:42;21.10;79.20
49679;DHT22;35570;48.218;16.326;2023-07-28T01:58:08;21.00;78.90
49679;DHT22;35570;48.218;16.326;2023-07-28T02:00:35;21.00;79.40
49679;DHT22;35570;48.218;16.326;2023-07-28T02:03:00;21.00;80.10
49679;DHT22;35570;48.218;16.326;2023-07-28T02:05:28;21.00;80.90
49679;DHT22;35570;48.218;16.326;2023-07-28T02:07:54;21.10;81.10
49679;DHT22;35570;48.218;16.326;2023-07-28T02:10:22;21.10;80.60
49679;DHT22;35570;48.218;16.326;2023-07-28T02:12:48;21.00;81.40
49679;DHT22;35570;48.218;16.326;2023-07-28T02:15:14;21.00;81.90
49679;DHT22;35570;48.218;16.326;2023-07-28T02:17:39;21.00;82.30
49679;DHT22;35570;48.218;16.326;2023-07-28T02:20:05;21.00;82.90
49679;DHT22;35570;48.218;16.326;2023-07-28T02:22:31;21.00;83.70
49679;DHT22;35570;48.218;16.326;2023-07-28T02:24:57;21.00;83.00
49679;DHT22;35570;48.218;16.326;2023-07-28T02:27:27;20.90;83.80
49679;DHT22;35570;48.218;16.326;2023-07-28T02:29:52;20.90;83.80
49679;DHT22;35570;48.218;16.326;2023-07-28T02:32:18;20.90;85.30
49679;DHT22;35570;48.218;16.326;2023-07-28T02:34:43;20.90;84.20
49679;DHT22;35570;48.218;16.326;2023-07-28T02:37:09;20.90;84.00
49679;DHT22;35570;48.218;16.326;2023-07-28T02:39:35;20.90;84.00
49679;DHT22;35570;48.218;16.326;2023-07-28T02:42:01;20.90;84.30
49679;DHT22;35570;48.218;16.326;2023-07-28T02:44:26;20.80;84.90
49679;DHT22;35570;48.218;16.326;2023-07-28T02:46:52;20.80;85.20
49679;DHT22;35570;48.218;16.326;2023-07-28T02:49:18;20.80;85.00
49679;DHT22;35570;48.218;16.326;2023-07-28T02:51:43;20.80;85.70
49679;DHT22;35570;48.218;16.326;2023-07-28T02:54:10;20.80;87.00
49679;DHT22;35570;48.218;16.326;2023-07-28T02:56:35;20.80;85.80
49679;DHT22;35570;48.218;16.326;2023-07-28T02:59:03;20.80;86.70
49679;DHT22;35570;48.218;16.326;2023-07-28T03:01:31;20.80;85.60
49679;DHT22;35570;48.218;16.326;2023-07-28T03:04:01;20.80;86.40
49679;DHT22;35570;48.218;16.326;2023-07-28T03:06:27;20.80;87.00
49679;DHT22;35570;48.218;16.326;2023-07-28T03:08:52;21.50;87.60
49679;DHT22;35570;48.218;16.326;2023-07-28T03:11:18;20.80;86.50
49679;DHT22;35570;48.218;16.326;2023-07-28T03:13:43;20.80;86.50
49679;DHT22;35570;48.218;16.326;2023-07-28T03:16:09;20.80;87.40
49679;DHT22;35570;48.218;16.326;2023-07-28T03:18:35;20.90;87.30
49679;DHT22;35570;48.218;16.326;2023-07-28T03:21:01;20.90;86.30
49679;DHT22;35570;48.218;16.326;2023-07-28T03:23:26;20.90;84.70
49679;DHT22;35570;48.218;16.326;2023-07-28T03:25:52;20.80;86.40
49679;DHT22;35570;48.218;16.326;2023-07-28T03:28:18;20.90;85.70
49679;DHT22;35570;48.218;16.326;2023-07-28T03:30:43;20.90;86.70
49679;DHT22;35570;48.218;16.326;2023-07-28T03:33:09;20.90;87.00
49679;DHT22;35570;48.218;16.326;2023-07-28T03:35:35;20.80;86.00
49679;DHT22;35570;48.218;16.326;2023-07-28T03:38:00;20.90;87.00
49679;DHT22;35570;48.218;16.326;2023-07-28T03:40:26;20.90;87.10
49679;DHT22;35570;48.218;16.326;2023-07-28T03:42:52;20.90;86.50
49679;DHT22;35570;48.218;16.326;2023-07-28T03:45:18;20.90;85.90
49679;DHT22;35570;48.218;16.326;2023-07-28T03:47:44;20.80;86.50
49679;DHT22;35570;48.218;16.326;2023-07-28T03:50:09;20.90;86.10
49679;DHT22;35570;48.218;16.326;2023-07-28T03:52:35;20.80;87.30
49679;DHT22;35570;48.218;16.326;2023-07-28T03:55:01;20.80;85.90
49679;DHT22;35570;48.218;16.326;2023-07-28T03:57:27;20.80;87.70
49679;DHT22;35570;48.218;16.326;2023-07-28T03:59:52;20.80;87.60
49679;DHT22;35570;48.218;16.326;2023-07-28T04:02:18;20.80;86.60
49679;DHT22;35570;48.218;16.326;2023-07-28T04:04:43;20.80;87.00
49679;DHT22;35570;48.218;16.326;2023-07-28T04:07:09;20.90;87.20
49679;DHT22;35570;48.218;16.326;2023-07-28T04:09:35;20.90;86.50
49679;DHT22;35570;48.218;16.326;2023-07-28T04:12:00;20.90;86.30
49679;DHT22;35570;48.218;16.326;2023-07-28T04:14:26;20.80;87.00
49679;DHT22;35570;48.218;16.326;2023-07-28T04:16:51;20.90;86.30
49679;DHT22;35570;48.218;16.326;2023-07-28T04:19:17;20.90;85.80
49679;DHT22;35570;48.218;16.326;2023-07-28T04:21:42;20.80;86.80
49679;DHT22;35570;48.218;16.326;2023-07-28T04:24:09;20.90;85.30
49679;DHT22;35570;48.218;16.326;2023-07-28T04:26:35;20.80;85.20
49679;DHT22;35570;48.218;16.326;2023-07-28T04:29:00;20.90;84.80
49679;DHT22;35570;48.218;16.326;2023-07-28T04:31:26;20.90;86.00
49679;DHT22;35570;48.218;16.326;2023-07-28T04:33:52;20.90;85.10
49679;DHT22;35570;48.218;16.326;2023-07-28T04:36:17;20.90;85.90
49679;DHT22;35570;48.218;16.326;2023-07-28T04:38:43;20.90;83.80
49679;DHT22;35570;48.218;16.326;2023-07-28T04:41:08;20.90;83.80
49679;DHT22;35570;48.218;16.326;2023-07-28T04:43:34;20.90;84.60
49679;DHT22;35570;48.218;16.326;2023-07-28T04:46:00;20.90;86.30
49679;DHT22;35570;48.218;16.326;2023-07-28T04:48:27;21.00;85.60
49679;DHT22;35570;48.218;16.326;2023-07-28T04:50:52;21.00;85.00
49679;DHT22;35570;48.218;16.326;2023-07-28T04:53:18;21.00;85.40
49679;DHT22;35570;48.218;16.326;2023-07-28T04:55:44;21.00;86.30
49679;DHT22;35570;48.218;16.326;2023-07-28T04:58:09;21.00;85.70
49679;DHT22;35570;48.218;16.326;2023-07-28T05:00:35;21.00;85.40
49679;DHT22;35570;48.218;16.326;2023-07-28T05:03:00;21.00;86.00
49679;DHT22;35570;48.218;16.326;2023-07-28T05:05:26;21.00;85.00
49679;DHT22;35570;48.218;16.326;2023-07-28T05:07:51;21.00;84.40
49679;DHT22;35570;48.218;16.326;2023-07-28T05:10:17;21.00;84.80
49679;DHT22;35570;48.218;16.326;2023-07-28T05:12:43;21.00;83.90
49679;DHT22;35570;48.218;16.326;2023-07-28T05:15:08;21.10;85.00
49679;DHT22;35570;48.218;16.326;2023-07-28T05:17:36;21.10;85.00
49679;DHT22;35570;48.218;16.326;2023-07-28T05:20:02;21.10;83.90
49679;DHT22;35570;48.218;16.326;2023-07-28T05:22:28;21.10;84.20
49679;DHT22;35570;48.218;16.326;2023-07-28T05:24:54;21.10;85.30
49679;DHT22;35570;48.218;16.326;2023-07-28T05:27:20;21.20;85.40
49679;DHT22;35570;48.218;16.326;2023-07-28T05:29:45;21.20;84.90
49679;DHT22;35570;48.218;16.326;2023-07-28T05:32:11;21.20;85.30
49679;DHT22;35570;48.218;16.326;2023-07-28T05:34:36;21.30;84.70
49679;DHT22;35570;48.218;16.326;2023-07-28T05:37:02;21.30;84.40
49679;DHT22;35570;48.218;16.326;2023-07-28T05:39:28;21.20;84.60
49679;DHT22;35570;48.218;16.326;2023-07-28T05:41:54;21.30;80.80
49679;DHT22;35570;48.218;16.326;2023-07-28T05:44:19;21.30;81.60
49679;DHT22;35570;48.218;16.326;2023-07-28T05:46:45;21.30;82.60
49679;DHT22;35570;48.218;16.326;2023-07-28T05:49:13;21.30;81.40
49679;DHT22;35570;48.218;16.326;2023-07-28T05:51:39;21.40;80.80
49679;DHT22;35570;48.218;16.326;2023-07-28T05:54:05;21.40;80.90
49679;DHT22;35570;48.218;16.326;2023-07-28T05:56:30;21.40;81.60
49679;DHT22;35570;48.218;16.326;2023-07-28T05:58:57;21.40;80.00
49679;DHT22;35570;48.218;16.326;2023-07-28T06:01:23;21.50;79.60
49679;DHT22;35570;48.218;16.326;2023-07-28T06:03:50;21.50;78.80
49679;DHT22;35570;48.218;16.326;2023-07-28T06:06:17;21.50;79.00
49679;DHT22;35570;48.218;16.326;2023-07-28T06:08:44;21.60;80.80
49679;DHT22;35570;48.218;16.326;2023-07-28T06:11:09;21.60;78.30
49679;DHT22;35570;48.218;16.326;2023-07-28T06:13:35;21.60;78.10
49679;DHT22;35570;48.218;16.326;2023-07-28T06:16:01;21.70;79.10
49679;DHT22;35570;48.218;16.326;2023-07-28T06:18:27;21.70;79.00
49679;DHT22;35570;48.218;16.326;2023-07-28T06:20:52;21.80;80.30
49679;DHT22;35570;48.218;16.326;2023-07-28T06:23:18;21.80;78.60
49679;DHT22;35570;48.218;16.326;2023-07-28T06:25:43;21.90;77.70
49679;DHT22;35570;48.218;16.326;2023-07-28T06:28:11;21.90;76.90
49679;DHT22;35570;48.218;16.326;2023-07-28T06:30:37;22.00;76.40
49679;DHT22;35570;48.218;16.326;2023-07-28T06:33:06;22.00;77.20
49679;DHT22;35570;48.218;16.326;2023-07-28T06:35:32;22.10;74.30
49679;DHT22;35570;48.218;16.326;2023-07-28T06:37:59;22.10;74.20
49679;DHT22;35570;48.218;16.326;2023-07-28T06:40:24;22.10;75.40
49679;DHT22;35570;48.218;16.326;2023-07-28T06:42:50;22.20;73.40
49679;DHT22;35570;48.218;16.326;2023-07-28T06:45:16;22.30;74.70
49679;DHT22;35570;48.218;16.326;2023-07-28T06:47:42;22.30;73.30
49679;DHT22;35570;48.218;16.326;2023-07-28T06:50:08;22.30;73.10
49679;DHT22;35570;48.218;16.326;2023-07-28T06:52:34;22.30;73.30
49679;DHT22;35570;48.218;16.326;2023-07-28T06:54:59;22.30;72.90
49679;DHT22;35570;48.218;16.326;2023-07-28T06:57:25;22.30;72.30
49679;DHT22;35570;48.218;16.326;2023-07-28T06:59:51;22.30;72.60
49679;DHT22;35570;48.218;16.326;2023-07-28T07:02:16;22.30;73.40
49679;DHT22;35570;48.218;16.326;2023-07-28T07:04:42;22.30;72.40
49679;DHT22;35570;48.218;16.326;2023-07-28T07:07:08;22.30;74.30
49679;DHT22;35570;48.218;16.326;2023-07-28T07:09:34;22.40;74.10
49679;DHT22;35570;48.218;16.326;2023-07-28T07:12:00;22.50;73.70
49679;DHT22;35570;48.218;16.326;2023-07-28T07:14:26;22.50;72.50
49679;DHT22;35570;48.218;16.326;2023-07-28T07:16:51;22.70;73.20
49679;DHT22;35570;48.218;16.326;2023-07-28T07:19:17;22.70;73.00
49679;DHT22;35570;48.218;16.326;2023-07-28T07:21:42;22.80;72.40
49679;DHT22;35570;48.218;16.326;2023-07-28T07:24:10;23.00;73.20
49679;DHT22;35570;48.218;16.326;2023-07-28T07:26:39;23.10;73.80
49679;DHT22;35570;48.218;16.326;2023-07-28T07:29:05;23.10;73.30
49679;DHT22;35570;48.218;16.326;2023-07-28T07:31:30;23.20;72.50
49679;DHT22;35570;48.218;16.326;2023-07-28T07:33:56;23.30;70.40
49679;DHT22;35570;48.218;16.326;2023-07-28T07:36:22;23.40;69.50
49679;DHT22;35570;48.218;16.326;2023-07-28T07:38:47;23.50;71.60
49679;DHT22;35570;48.218;16.326;2023-07-28T07:41:15;23.60;71.50
49679;DHT22;35570;48.218;16.326;2023-07-28T07:43:51;23.70;72.70
49679;DHT22;35570;48.218;16.326;2023-07-28T07:46:18;23.80;70.50
49679;DHT22;35570;48.218;16.326;2023-07-28T07:48:47;24.00;67.20
49679;DHT22;35570;48.218;16.326;2023-07-28T07:51:14;24.20;69.30
49679;DHT22;35570;48.218;16.326;2023-07-28T07:53:40;24.30;69.10
49679;DHT22;35570;48.218;16.326;2023-07-28T07:56:09;24.50;68.10
49679;DHT22;35570;48.218;16.326;2023-07-28T07:58:35;24.60;65.90
49679;DHT22;35570;48.218;16.326;2023-07-28T08:01:01;24.70;67.30
49679;DHT22;35570;48.218;16.326;2023-07-28T08:03:26;24.80;66.50
49679;DHT22;35570;48.218;16.326;2023-07-28T08:05:53;24.90;64.30
49679;DHT22;35570;48.218;16.326;2023-07-28T08:08:19;25.00;64.50
49679;DHT22;35570;48.218;16.326;2023-07-28T08:10:49;25.10;65.60
49679;DHT22;35570;48.218;16.326;2023-07-28T08:13:15;25.30;63.30
49679;DHT22;35570;48.218;16.326;2023-07-28T08:15:43;25.40;63.70
49679;DHT22;35570;48.218;16.326;2023-07-28T08:18:08;25.50;63.10
49679;DHT22;35570;48.218;16.326;2023-07-28T08:20:34;25.60;62.80
49679;DHT22;35570;48.218;16.326;2023-07-28T08:22:59;25.70;62.50
49679;DHT22;35570;48.218;16.326;2023-07-28T08:25:25;25.70;62.90
49679;DHT22;35570;48.218;16.326;2023-07-28T08:27:51;25.80;63.90
49679;DHT22;35570;48.218;16.326;2023-07-28T08:30:16;25.90;64.20
49679;DHT22;35570;48.218;16.326;2023-07-28T08:32:43;26.00;64.00
49679;DHT22;35570;48.218;16.326;2023-07-28T08:35:09;26.00;63.00
49679;DHT22;35570;48.218;16.326;2023-07-28T08:37:34;26.10;63.00
49679;DHT22;35570;48.218;16.326;2023-07-28T08:40:00;26.20;62.70
49679;DHT22;35570;48.218;16.326;2023-07-28T08:42:29;26.20;62.40
49679;DHT22;35570;48.218;16.326;2023-07-28T08:44:55;26.30;63.70
49679;DHT22;35570;48.218;16.326;2023-07-28T08:47:21;26.40;62.90
49679;DHT22;35570;48.218;16.326;2023-07-28T08:49:47;26.50;62.10
49679;DHT22;35570;48.218;16.326;2023-07-28T08:52:16;26.50;61.50
49679;DHT22;35570;48.218;16.326;2023-07-28T08:54:41;26.50;61.20
49679;DHT22;35570;48.218;16.326;2023-07-28T08:57:09;26.60;61.80
49679;DHT22;35570;48.218;16.326;2023-07-28T08:59:35;26.80;62.00
49679;DHT22;35570;48.218;16.326;2023-07-28T09:02:01;26.80;61.40
49679;DHT22;35570;48.218;16.326;2023-07-28T09:04:27;26.90;61.00
49679;DHT22;35570;48.218;16.326;2023-07-28T09:06:53;27.00;60.80
49679;DHT22;35570;48.218;16.326;2023-07-28T09:09:21;27.00;59.70
49679;DHT22;35570;48.218;16.326;2023-07-28T09:11:54;27.00;60.30
49679;DHT22;35570;48.218;16.326;2023-07-28T09:14:20;27.10;60.70
49679;DHT22;35570;48.218;16.326;2023-07-28T09:16:49;27.20;60.00
49679;DHT22;35570;48.218;16.326;2023-07-28T09:19:15;27.30;59.60
49679;DHT22;35570;48.218;16.326;2023-07-28T09:21:44;27.40;59.10
49679;DHT22;35570;48.218;16.326;2023-07-28T09:24:13;27.40;59.10
49679;DHT22;35570;48.218;16.326;2023-07-28T09:26:46;27.50;58.70
49679;DHT22;35570;48.218;16.326;2023-07-28T09:31:37;27.70;58.70
49679;DHT22;35570;48.218;16.326;2023-07-28T09:34:07;27.70;57.90
49679;DHT22;35570;48.218;16.326;2023-07-28T09:36:34;27.80;59.90
49679;DHT22;35570;48.218;16.326;2023-07-28T09:39:01;27.80;57.50
49679;DHT22;35570;48.218;16.326;2023-07-28T09:41:29;27.70;57.20
49679;DHT22;35570;48.218;16.326;2023-07-28T09:43:55;27.70;57.40
49679;DHT22;35570;48.218;16.326;2023-07-28T09:46:22;27.70;57.60
49679;DHT22;35570;48.218;16.326;2023-07-28T09:48:52;27.80;57.60
49679;DHT22;35570;48.218;16.326;2023-07-28T09:51:21;28.00;56.70
49679;DHT22;35570;48.218;16.326;2023-07-28T09:53:58;28.10;56.90
49679;DHT22;35570;48.218;16.326;2023-07-28T09:56:28;28.20;59.00
49679;DHT22;35570;48.218;16.326;2023-07-28T09:58:56;28.40;56.30
49679;DHT22;35570;48.218;16.326;2023-07-28T10:01:23;28.40;56.90
49679;DHT22;35570;48.218;16.326;2023-07-28T10:03:50;28.50;56.00
49679;DHT22;35570;48.218;16.326;2023-07-28T10:06:17;28.70;55.00
49679;DHT22;35570;48.218;16.326;2023-07-28T10:08:43;28.70;55.60
49679;DHT22;35570;48.218;16.326;2023-07-28T10:11:11;28.60;55.30
49679;DHT22;35570;48.218;16.326;2023-07-28T10:13:42;28.60;55.70
49679;DHT22;35570;48.218;16.326;2023-07-28T10:16:08;28.60;55.10
49679;DHT22;35570;48.218;16.326;2023-07-28T10:18:39;28.60;55.70
49679;DHT22;35570;48.218;16.326;2023-07-28T10:21:08;28.50;55.20
49679;DHT22;35570;48.218;16.326;2023-07-28T10:23:35;28.60;55.10
49679;DHT22;35570;48.218;16.326;2023-07-28T10:26:03;28.60;54.80
49679;DHT22;35570;48.218;16.326;2023-07-28T10:30:58;29.00;55.20
49679;DHT22;35570;48.218;16.326;2023-07-28T10:33:31;29.10;55.30
49679;DHT22;35570;48.218;16.326;2023-07-28T10:35:58;29.00;55.40
49679;DHT22;35570;48.218;16.326;2023-07-28T10:38:34;29.00;55.50
49679;DHT22;35570;48.218;16.326;2023-07-28T10:41:16;28.90;55.60
49679;DHT22;35570;48.218;16.326;2023-07-28T10:43:43;28.80;55.40
49679;DHT22;35570;48.218;16.326;2023-07-28T10:46:11;28.70;55.80
49679;DHT22;35570;48.218;16.326;2023-07-28T10:48:43;28.70;55.80
49679;DHT22;35570;48.218;16.326;2023-07-28T10:51:10;28.80;55.30
49679;DHT22;35570;48.218;16.326;2023-07-28T10:53:37;28.90;55.20
49679;DHT22;35570;48.218;16.326;2023-07-28T10:56:03;29.10;56.50
49679;DHT22;35570;48.218;16.326;2023-07-28T10:58:33;29.20;54.90
49679;DHT22;35570;48.218;16.326;2023-07-28T11:00:59;29.10;55.80
49679;DHT22;35570;48.218;16.326;2023-07-28T11:03:25;29.00;56.20
49679;DHT22;35570;48.218;16.326;2023-07-28T11:05:54;29.20;55.10
49679;DHT22;35570;48.218;16.326;2023-07-28T11:08:20;29.30;56.20
49679;DHT22;35570;48.218;16.326;2023-07-28T11:10:46;29.00;64.00
49679;DHT22;35570;48.218;16.326;2023-07-28T11:13:11;29.20;58.70
49679;DHT22;35570;48.218;16.326;2023-07-28T11:15:38;29.10;58.30
49679;DHT22;35570;48.218;16.326;2023-07-28T11:18:04;29.00;61.70
49679;DHT22;35570;48.218;16.326;2023-07-28T11:20:30;29.10;63.60
49679;DHT22;35570;48.218;16.326;2023-07-28T11:22:57;29.10;63.00
49679;DHT22;35570;48.218;16.326;2023-07-28T11:25:24;29.10;60.60
49679;DHT22;35570;48.218;16.326;2023-07-28T11:27:51;29.30;60.90
49679;DHT22;35570;48.218;16.326;2023-07-28T11:30:17;29.40;64.10
49679;DHT22;35570;48.218;16.326;2023-07-28T11:32:45;29.50;58.50
49679;DHT22;35570;48.218;16.326;2023-07-28T11:35:13;29.60;55.80
49679;DHT22;35570;48.218;16.326;2023-07-28T11:37:40;29.70;57.80
49679;DHT22;35570;48.218;16.326;2023-07-28T11:40:07;29.60;56.80
49679;DHT22;35570;48.218;16.326;2023-07-28T11:42:37;29.50;57.20
49679;DHT22;35570;48.218;16.326;2023-07-28T11:45:07;29.60;55.10
49679;DHT22;35570;48.218;16.326;2023-07-28T11:47:33;29.60;54.90
49679;DHT22;35570;48.218;16.326;2023-07-28T11:49:59;29.70;54.80
49679;DHT22;35570;48.218;16.326;2023-07-28T11:52:36;29.90;56.20
49679;DHT22;35570;48.218;16.326;2023-07-28T11:55:06;30.00;55.10
49679;DHT22;35570;48.218;16.326;2023-07-28T11:57:32;30.10;54.70
49679;DHT22;35570;48.218;16.326;2023-07-28T11:59:59;30.30;51.20
49679;DHT22;35570;48.218;16.326;2023-07-28T12:02:26;30.20;51.50
49679;DHT22;35570;48.218;16.326;2023-07-28T12:04:52;30.30;50.70
49679;DHT22;35570;48.218;16.326;2023-07-28T12:07:20;30.40;50.30
49679;DHT22;35570;48.218;16.326;2023-07-28T12:09:52;30.20;51.90
49679;DHT22;35570;48.218;16.326;2023-07-28T12:12:20;30.10;52.20
49679;DHT22;35570;48.218;16.326;2023-07-28T12:14:46;30.20;52.50
49679;DHT22;35570;48.218;16.326;2023-07-28T12:17:23;30.00;52.60
49679;DHT22;35570;48.218;16.326;2023-07-28T12:20:05;29.80;53.60
49679;DHT22;35570;48.218;16.326;2023-07-28T12:22:40;29.60;54.40
49679;DHT22;35570;48.218;16.326;2023-07-28T12:25:06;29.50;54.80
49679;DHT22;35570;48.218;16.326;2023-07-28T12:27:32;29.70;55.00
49679;DHT22;35570;48.218;16.326;2023-07-28T12:29:59;29.80;54.90
49679;DHT22;35570;48.218;16.326;2023-07-28T12:32:25;29.80;54.80
49679;DHT22;35570;48.218;16.326;2023-07-28T12:34:51;29.70;54.80
49679;DHT22;35570;48.218;16.326;2023-07-28T12:37:17;29.50;54.80
49679;DHT22;35570;48.218;16.326;2023-07-28T12:39:43;29.50;55.30
49679;DHT22;35570;48.218;16.326;2023-07-28T12:42:09;29.60;56.00
49679;DHT22;35570;48.218;16.326;2023-07-28T12:44:36;29.70;56.90
49679;DHT22;35570;48.218;16.326;2023-07-28T12:47:02;29.90;56.30
49679;DHT22;35570;48.218;16.326;2023-07-28T12:49:29;30.00;56.10
49679;DHT22;35570;48.218;16.326;2023-07-28T12:51:55;30.00;55.80
49679;DHT22;35570;48.218;16.326;2023-07-28T12:54:22;29.90;55.60
49679;DHT22;35570;48.218;16.326;2023-07-28T12:56:48;29.50;56.00
49679;DHT22;35570;48.218;16.326;2023-07-28T12:59:14;29.10;56.40
49679;DHT22;35570;48.218;16.326;2023-07-28T13:01:40;28.70;57.30
49679;DHT22;35570;48.218;16.326;2023-07-28T13:04:06;28.40;58.50
49679;DHT22;35570;48.218;16.326;2023-07-28T13:06:32;28.20;58.80
49679;DHT22;35570;48.218;16.326;2023-07-28T13:08:58;28.00;59.20
49679;DHT22;35570;48.218;16.326;2023-07-28T13:11:23;28.00;59.60
49679;DHT22;35570;48.218;16.326;2023-07-28T13:13:49;28.00;60.70
49679;DHT22;35570;48.218;16.326;2023-07-28T13:16:15;27.90;60.30
49679;DHT22;35570;48.218;16.326;2023-07-28T13:18:42;27.80;59.80
49679;DHT22;35570;48.218;16.326;2023-07-28T13:21:08;27.70;58.70
49679;DHT22;35570;48.218;16.326;2023-07-28T13:23:34;27.60;59.50
49679;DHT22;35570;48.218;16.326;2023-07-28T13:25:59;27.60;60.10
49679;DHT22;35570;48.218;16.326;2023-07-28T13:28:25;27.50;61.00
49679;DHT22;35570;48.218;16.326;2023-07-28T13:30:51;27.50;62.20
49679;DHT22;35570;48.218;16.326;2023-07-28T13:33:17;27.60;61.70
49679;DHT22;35570;48.218;16.326;2023-07-28T13:35:43;27.90;62.40
49679;DHT22;35570;48.218;16.326;2023-07-28T13:38:08;28.30;61.30
49679;DHT22;35570;48.218;16.326;2023-07-28T13:40:35;28.40;61.20
49679;DHT22;35570;48.218;16.326;2023-07-28T13:43:00;28.30;60.70
49679;DHT22;35570;48.218;16.326;2023-07-28T13:45:26;28.20;61.30
49679;DHT22;35570;48.218;16.326;2023-07-28T13:47:52;28.10;60.60
49679;DHT22;35570;48.218;16.326;2023-07-28T13:50:18;28.10;62.40
49679;DHT22;35570;48.218;16.326;2023-07-28T13:52:43;28.30;60.70
49679;DHT22;35570;48.218;16.326;2023-07-28T13:55:09;28.30;59.80
49679;DHT22;35570;48.218;16.326;2023-07-28T13:57:35;28.30;60.10
49679;DHT22;35570;48.218;16.326;2023-07-28T14:00:02;28.40;60.00
49679;DHT22;35570;48.218;16.326;2023-07-28T14:02:27;28.40;60.50
49679;DHT22;35570;48.218;16.326;2023-07-28T14:04:53;28.60;60.50
49679;DHT22;35570;48.218;16.326;2023-07-28T14:07:19;28.80;59.70
49679;DHT22;35570;48.218;16.326;2023-07-28T14:09:45;29.00;58.80
49679;DHT22;35570;48.218;16.326;2023-07-28T14:12:11;29.20;60.50
49679;DHT22;35570;48.218;16.326;2023-07-28T14:14:36;29.50;57.80
49679;DHT22;35570;48.218;16.326;2023-07-28T14:17:02;29.60;57.50
49679;DHT22;35570;48.218;16.326;2023-07-28T14:19:28;30.20;59.10
49679;DHT22;35570;48.218;16.326;2023-07-28T14:21:53;31.20;60.90
49679;DHT22;35570;48.218;16.326;2023-07-28T14:24:19;31.70;53.20
49679;DHT22;35570;48.218;16.326;2023-07-28T14:26:45;31.30;53.60
49679;DHT22;35570;48.218;16.326;2023-07-28T14:29:10;30.80;54.20
49679;DHT22;35570;48.218;16.326;2023-07-28T14:31:36;30.20;54.70
49679;DHT22;35570;48.218;16.326;2023-07-28T14:34:01;29.60;55.40
49679;DHT22;35570;48.218;16.326;2023-07-28T14:36:27;29.30;56.70
49679;DHT22;35570;48.218;16.326;2023-07-28T14:38:53;29.10;57.60
49679;DHT22;35570;48.218;16.326;2023-07-28T14:41:18;28.80;57.10
49679;DHT22;35570;48.218;16.326;2023-07-28T14:43:44;28.60;57.60
49679;DHT22;35570;48.218;16.326;2023-07-28T14:46:10;28.50;58.10
49679;DHT22;35570;48.218;16.326;2023-07-28T14:48:36;28.40;59.00
49679;DHT22;35570;48.218;16.326;2023-07-28T14:51:02;28.30;59.40
49679;DHT22;35570;48.218;16.326;2023-07-28T14:53:38;28.20;60.00
49679;DHT22;35570;48.218;16.326;2023-07-28T14:56:05;28.20;64.20
49679;DHT22;35570;48.218;16.326;2023-07-28T14:58:32;28.10;63.30
49679;DHT22;35570;48.218;16.326;2023-07-28T15:00:58;28.00;63.60
49679;DHT22;35570;48.218;16.326;2023-07-28T15:03:27;28.00;62.60
49679;DHT22;35570;48.218;16.326;2023-07-28T15:05:53;27.90;60.60
49679;DHT22;35570;48.218;16.326;2023-07-28T15:08:20;27.80;61.30
49679;DHT22;35570;48.218;16.326;2023-07-28T15:10:45;27.70;61.30
49679;DHT22;35570;48.218;16.326;2023-07-28T15:13:11;27.70;61.30
49679;DHT22;35570;48.218;16.326;2023-07-28T15:15:37;27.50;61.50
49679;DHT22;35570;48.218;16.326;2023-07-28T15:18:02;27.40;61.70
49679;DHT22;35570;48.218;16.326;2023-07-28T15:20:28;27.40;62.90
49679;DHT22;35570;48.218;16.326;2023-07-28T15:22:54;27.60;61.80